createdAt,value
2022-08-29T00:01:49.996Z,99.88
2022-08-29T00:04:16.891Z,99.78
2022-08-29T00:06:43.750Z,99.19
2022-08-29T00:09:10.568Z,98.86
2022-08-29T00:11:40.579Z,99.43
2022-08-29T00:14:20.994Z,100.00
2022-08-29T00:16:51.171Z,99.98
2022-08-29T00:19:21.732Z,100.00
2022-08-29T00:21:48.659Z,99.55
2022-08-29T00:24:17.097Z,98.95
2022-08-29T00:26:43.935Z,98.79
2022-08-29T00:29:11.141Z,99.52
2022-08-29T00:31:38.741Z,100.00
2022-08-29T00:34:05.638Z,100.00
2022-08-29T00:36:32.943Z,99.76
2022-08-29T00:38:59.811Z,99.26
2022-08-29T00:41:26.696Z,99.33
2022-08-29T00:43:53.640Z,99.28
2022-08-29T00:46:55.513Z,99.68
2022-08-29T00:49:42.752Z,99.34
2022-08-29T00:52:33.599Z,100.00
2022-08-29T00:55:09.899Z,100.00
2022-08-29T00:58:14.051Z,100.00
2022-08-29T01:00:43.623Z,100.00
2022-08-29T01:03:10.871Z,99.96
2022-08-29T01:05:38.144Z,99.29
2022-08-29T01:08:06.862Z,99.48
2022-08-29T01:10:54.434Z,98.88
2022-08-29T01:13:35.799Z,99.35
2022-08-29T01:16:05.467Z,99.04
2022-08-29T01:18:37.717Z,98.97
2022-08-29T01:21:16.498Z,99.58
2022-08-29T01:24:09.905Z,100.00
2022-08-29T01:26:37.523Z,99.90
2022-08-29T01:29:04.691Z,100.00
2022-08-29T01:31:56.796Z,99.43
2022-08-29T01:34:30.491Z,99.59
2022-08-29T01:37:03.481Z,99.06
2022-08-29T01:39:38.753Z,98.64
2022-08-29T01:42:11.486Z,98.16
2022-08-29T01:44:39.922Z,98.43
2022-08-29T01:47:08.861Z,97.80
2022-08-29T01:49:38.786Z,97.39
2022-08-29T01:52:08.957Z,97.51
2022-08-29T01:54:36.400Z,97.58
2022-08-29T01:57:03.897Z,98.30
2022-08-29T01:59:31.901Z,97.71
2022-08-29T02:02:38.279Z,98.07
2022-08-29T02:05:06.493Z,98.13
2022-08-29T02:07:33.401Z,97.89
2022-08-29T02:10:00.323Z,97.30
2022-08-29T02:12:27.432Z,97.00
2022-08-29T02:14:54.322Z,98.47
2022-08-29T02:17:21.487Z,98.94
2022-08-29T02:19:48.324Z,98.89
2022-08-29T02:22:24.385Z,98.08
2022-08-29T02:24:51.240Z,97.97
2022-08-29T02:27:20.664Z,97.71
2022-08-29T02:29:47.507Z,97.66
2022-08-29T02:32:16.564Z,97.63
2022-08-29T02:34:48.425Z,97.78
2022-08-29T02:37:16.842Z,98.19
2022-08-29T02:39:43.785Z,98.17
2022-08-29T02:42:10.710Z,97.81
2022-08-29T02:44:38.188Z,97.20
2022-08-29T02:47:05.375Z,97.04
2022-08-29T02:49:32.195Z,97.73
2022-08-29T02:51:59.453Z,98.09
2022-08-29T02:54:26.341Z,97.98
2022-08-29T02:56:53.137Z,97.36
2022-08-29T02:59:19.935Z,97.35
2022-08-29T03:01:46.786Z,98.15
2022-08-29T03:04:13.677Z,98.36
2022-08-29T03:06:40.468Z,98.61
2022-08-29T03:09:07.360Z,98.62
2022-08-29T03:11:35.615Z,97.97
2022-08-29T03:14:27.820Z,98.47
2022-08-29T03:16:54.939Z,98.35
2022-08-29T03:19:22.814Z,98.91
2022-08-29T03:21:49.666Z,98.66
2022-08-29T03:24:16.469Z,98.32
2022-08-29T03:26:56.754Z,98.18
2022-08-29T03:29:24.905Z,97.84
2022-08-29T03:31:51.783Z,98.77
2022-08-29T03:34:18.731Z,98.61
2022-08-29T03:37:09.285Z,98.67
2022-08-29T03:39:37.876Z,98.63
2022-08-29T03:42:06.523Z,98.17
2022-08-29T03:44:36.306Z,98.39
2022-08-29T03:47:04.510Z,98.66
2022-08-29T03:49:31.488Z,99.12
2022-08-29T03:51:58.933Z,99.49
2022-08-29T03:54:26.102Z,99.85
2022-08-29T03:56:53.434Z,99.54
2022-08-29T03:59:20.539Z,98.91
2022-08-29T04:01:48.403Z,99.18
2022-08-29T04:04:36.475Z,99.52
2022-08-29T04:07:06.466Z,99.69
2022-08-29T04:09:33.388Z,99.89
2022-08-29T04:12:00.321Z,99.48
2022-08-29T04:14:27.283Z,99.60
2022-08-29T04:16:58.034Z,99.71
2022-08-29T04:19:24.924Z,99.83
2022-08-29T04:21:51.730Z,100.00
2022-08-29T04:24:19.924Z,100.00
2022-08-29T04:26:46.796Z,100.00
2022-08-29T04:29:13.878Z,99.97
2022-08-29T04:31:43.542Z,100.00
2022-08-29T04:34:12.910Z,99.85
2022-08-29T04:36:42.857Z,99.64
2022-08-29T04:39:10.240Z,99.38
2022-08-29T04:41:39.197Z,99.97
2022-08-29T04:44:08.368Z,99.39
2022-08-29T04:46:35.656Z,100.00
2022-08-29T04:49:04.556Z,100.00
2022-08-29T04:51:34.703Z,100.00
2022-08-29T04:54:04.113Z,99.97
2022-08-29T04:56:31.227Z,100.00
2022-08-29T04:58:58.477Z,100.00
2022-08-29T05:01:27.244Z,100.00
2022-08-29T05:03:55.261Z,100.00
2022-08-29T05:06:24.078Z,100.00
2022-08-29T05:08:58.745Z,100.00
2022-08-29T05:11:31.925Z,100.00
2022-08-29T05:14:00.328Z,100.00
2022-08-29T05:16:29.866Z,100.00
2022-08-29T05:18:58.458Z,100.00
2022-08-29T05:21:35.183Z,100.00
2022-08-29T05:24:09.553Z,100.00
2022-08-29T05:26:41.628Z,100.00
2022-08-29T05:29:11.143Z,100.00
2022-08-29T05:31:41.820Z,100.00
2022-08-29T05:34:32.394Z,100.00
2022-08-29T05:37:17.489Z,100.00
2022-08-29T05:39:44.356Z,100.00
2022-08-29T05:42:12.572Z,99.75
2022-08-29T05:44:40.570Z,100.00
2022-08-29T05:47:11.185Z,100.00
2022-08-29T05:49:41.193Z,99.98
2022-08-29T05:52:09.533Z,99.27
2022-08-29T05:54:41.142Z,98.87
2022-08-29T05:57:15.354Z,98.32
2022-08-29T05:59:45.422Z,97.27
2022-08-29T06:02:13.043Z,97.55
2022-08-29T06:04:43.014Z,97.58
2022-08-29T06:07:10.933Z,96.78
2022-08-29T06:09:41.312Z,95.82
2022-08-29T06:12:12.645Z,96.35
2022-08-29T06:14:39.766Z,96.10
2022-08-29T06:17:09.189Z,95.55
2022-08-29T06:19:39.367Z,93.67
2022-08-29T06:22:10.316Z,92.51
2022-08-29T06:24:39.298Z,91.99
2022-08-29T06:27:06.848Z,91.87
2022-08-29T06:29:36.277Z,91.66
2022-08-29T06:32:12.117Z,91.16
2022-08-29T06:34:39.310Z,90.31
2022-08-29T06:37:06.220Z,90.32
2022-08-29T06:39:33.296Z,89.69
2022-08-29T06:42:00.239Z,89.32
2022-08-29T06:44:30.671Z,88.79
2022-08-29T06:46:59.128Z,88.58
2022-08-29T06:49:27.709Z,88.12
2022-08-29T06:51:58.402Z,87.47
2022-08-29T06:54:28.824Z,87.04
2022-08-29T06:56:58.112Z,86.65
2022-08-29T06:59:25.956Z,86.12
2022-08-29T07:01:55.135Z,85.79
2022-08-29T07:04:22.434Z,85.25
2022-08-29T07:06:53.475Z,84.08
2022-08-29T07:09:20.630Z,83.66
2022-08-29T07:11:47.637Z,82.92
2022-08-29T07:14:14.699Z,82.47
2022-08-29T07:16:42.528Z,81.38
2022-08-29T07:19:10.578Z,80.64
2022-08-29T07:21:38.685Z,79.74
2022-08-29T07:24:06.836Z,78.84
2022-08-29T07:26:42.483Z,78.37
2022-08-29T07:29:20.247Z,77.96
2022-08-29T07:31:48.437Z,77.36
2022-08-29T07:34:15.726Z,76.18
2022-08-29T07:36:43.293Z,75.41
2022-08-29T07:39:16.410Z,75.00
2022-08-29T07:41:45.180Z,73.34
2022-08-29T07:44:13.872Z,72.35
2022-08-29T07:46:41.565Z,71.43
2022-08-29T07:49:09.053Z,71.09
2022-08-29T07:51:36.375Z,70.25
2022-08-29T07:54:04.494Z,69.22
2022-08-29T07:56:40.984Z,68.76
2022-08-29T07:59:08.638Z,67.75
2022-08-29T08:01:36.598Z,67.23
2022-08-29T08:04:04.461Z,66.30
2022-08-29T08:06:31.349Z,65.13
2022-08-29T08:09:01.417Z,65.10
2022-08-29T08:11:28.578Z,63.13
2022-08-29T08:13:57.538Z,62.89
2022-08-29T08:16:27.510Z,62.40
2022-08-29T08:18:55.864Z,62.22
2022-08-29T08:21:25.610Z,61.01
2022-08-29T08:23:53.809Z,61.23
2022-08-29T08:26:21.754Z,59.54
2022-08-29T08:28:49.335Z,59.80
2022-08-29T08:31:18.304Z,60.54
2022-08-29T08:33:46.819Z,59.60
2022-08-29T08:36:28.704Z,58.63
2022-08-29T08:38:58.253Z,57.54
2022-08-29T08:41:44.712Z,56.51
2022-08-29T08:44:49.494Z,58.52
2022-08-29T08:47:25.897Z,55.63
2022-08-29T08:50:05.835Z,58.61
2022-08-29T08:56:46.414Z,60.77
2022-08-29T08:59:28.804Z,58.82
2022-08-29T09:02:09.047Z,56.31
2022-08-29T09:05:35.629Z,54.55
2022-08-29T09:08:42.774Z,56.47
2022-08-29T09:11:54.833Z,55.84
2022-08-29T09:15:07.431Z,54.36
2022-08-29T09:17:57.663Z,53.34
2022-08-29T09:20:30.704Z,52.65
2022-08-29T09:23:13.436Z,54.93
2022-08-29T09:25:40.546Z,53.58
2022-08-29T09:28:08.927Z,55.24
2022-08-29T09:31:22.743Z,55.47
2022-08-29T09:34:01.322Z,54.96
2022-08-29T09:36:53.475Z,54.50
2022-08-29T09:39:32.437Z,53.78
2022-08-29T09:42:13.818Z,52.22
2022-08-29T09:44:53.335Z,52.49
2022-08-29T09:47:29.940Z,52.84
2022-08-29T09:50:11.890Z,53.40
2022-08-29T09:52:56.761Z,53.40
2022-08-29T09:55:42.509Z,52.13
2022-08-29T09:58:21.367Z,51.54
2022-08-29T10:01:06.358Z,50.90
2022-08-29T10:03:40.523Z,49.88
2022-08-29T10:06:21.055Z,52.47
2022-08-29T10:09:23.863Z,49.67
2022-08-29T10:11:58.088Z,52.10
2022-08-29T10:14:49.724Z,51.78
2022-08-29T10:17:55.838Z,52.14
2022-08-29T10:20:40.813Z,51.08
2022-08-29T10:23:55.739Z,51.54
2022-08-29T10:26:37.274Z,52.47
2022-08-29T10:29:15.846Z,51.98
2022-08-29T10:31:55.901Z,49.92
2022-08-29T10:35:05.942Z,51.40
2022-08-29T10:37:53.286Z,50.47
2022-08-29T10:40:43.196Z,50.54
2022-08-29T10:43:41.689Z,47.69
2022-08-29T10:46:38.731Z,48.15
2022-08-29T10:49:36.108Z,45.75
2022-08-29T10:52:33.979Z,47.07
2022-08-29T10:55:49.028Z,46.45
2022-08-29T10:58:44.085Z,44.84
2022-08-29T11:01:33.250Z,43.97
2022-08-29T11:07:39.745Z,42.73
2022-08-29T11:10:17.795Z,41.46
2022-08-29T11:12:52.232Z,41.81
2022-08-29T11:15:26.295Z,40.57
2022-08-29T11:18:24.521Z,41.05
2022-08-29T11:20:59.325Z,39.77
2022-08-29T11:23:44.366Z,41.31
2022-08-29T11:26:58.164Z,39.87
2022-08-29T11:30:03.183Z,40.37
2022-08-29T11:33:12.740Z,37.91
2022-08-29T11:36:10.277Z,38.34
2022-08-29T11:39:05.145Z,36.30
2022-08-29T11:41:40.833Z,34.06
2022-08-29T11:44:31.612Z,33.94
2022-08-29T11:47:00.141Z,33.33
2022-08-29T11:49:43.249Z,32.87
2022-08-29T11:52:12.649Z,32.46
2022-08-29T11:54:40.012Z,31.30
2022-08-29T11:57:09.945Z,34.16
2022-08-29T11:59:49.056Z,36.72
2022-08-29T12:02:28.218Z,33.88
2022-08-29T12:05:02.423Z,30.96
2022-08-29T12:08:00.414Z,31.38
2022-08-29T12:10:53.043Z,30.80
2022-08-29T12:13:44.868Z,30.94
2022-08-29T12:16:16.037Z,30.61
2022-08-29T12:18:54.932Z,30.42
2022-08-29T12:21:54.479Z,29.53
2022-08-29T12:24:41.022Z,29.58
2022-08-29T12:28:18.140Z,31.11
2022-08-29T12:30:49.198Z,28.57
2022-08-29T12:34:09.085Z,28.94
2022-08-29T12:36:57.084Z,30.02
2022-08-29T12:40:09.580Z,30.59
2022-08-29T12:42:39.383Z,33.96
2022-08-29T12:45:27.019Z,34.95
2022-08-29T12:48:00.480Z,36.02
2022-08-29T12:50:45.133Z,36.21
2022-08-29T12:53:33.485Z,36.90
2022-08-29T12:56:20.829Z,36.84
2022-08-29T12:59:00.898Z,33.10
2022-08-29T13:01:38.003Z,31.29
2022-08-29T13:04:11.287Z,29.20
2022-08-29T13:07:00.881Z,28.22
2022-08-29T13:09:34.887Z,30.53
2022-08-29T13:12:27.452Z,32.93
2022-08-29T13:15:06.900Z,33.57
2022-08-29T13:17:42.674Z,31.58
2022-08-29T13:20:49.258Z,29.80
2022-08-29T13:23:27.761Z,28.89
2022-08-29T13:26:09.970Z,28.45
2022-08-29T13:29:00.096Z,27.82
2022-08-29T13:31:36.019Z,27.62
2022-08-29T13:34:20.659Z,28.06
2022-08-29T13:36:59.225Z,28.13
2022-08-29T13:39:41.418Z,28.41
2022-08-29T13:42:34.282Z,28.41
2022-08-29T13:45:11.916Z,28.03
2022-08-29T13:47:58.836Z,28.05
2022-08-29T13:50:27.712Z,28.53
2022-08-29T13:52:57.315Z,27.89
2022-08-29T13:55:25.772Z,27.52
2022-08-29T13:57:55.457Z,28.51
2022-08-29T14:00:32.385Z,27.91
2022-08-29T14:03:05.441Z,27.52
2022-08-29T14:05:33.037Z,27.34
2022-08-29T14:07:59.993Z,27.84
2022-08-29T14:10:27.060Z,27.66
2022-08-29T14:12:53.927Z,28.18
2022-08-29T14:15:21.234Z,28.03
2022-08-29T14:17:49.021Z,27.62
2022-08-29T14:20:18.800Z,27.41
2022-08-29T14:22:47.025Z,27.56
2022-08-29T14:25:17.656Z,28.23
2022-08-29T14:27:47.462Z,28.09
2022-08-29T14:30:20.924Z,28.28
2022-08-29T14:32:47.830Z,28.47
2022-08-29T14:35:25.686Z,29.07
2022-08-29T14:37:54.797Z,29.15
2022-08-29T14:40:22.669Z,28.35
2022-08-29T14:42:49.974Z,28.69
2022-08-29T14:45:16.950Z,28.65
2022-08-29T14:47:45.419Z,29.24
2022-08-29T14:50:14.327Z,29.31
2022-08-29T14:52:42.590Z,29.01
2022-08-29T14:55:12.246Z,30.07
2022-08-29T14:57:42.130Z,30.01
2022-08-29T15:00:14.661Z,29.99
2022-08-29T15:02:42.693Z,30.50
2022-08-29T15:05:11.867Z,30.87
2022-08-29T15:07:40.127Z,31.25
2022-08-29T15:10:08.933Z,31.43
2022-08-29T15:12:36.049Z,32.30
2022-08-29T15:15:05.725Z,33.51
2022-08-29T15:17:32.979Z,33.92
2022-08-29T15:22:47.498Z,35.20
2022-08-29T15:25:14.649Z,35.53
2022-08-29T15:27:42.409Z,36.34
2022-08-29T15:30:11.245Z,35.84
2022-08-29T15:32:38.975Z,36.06
2022-08-29T15:35:07.566Z,36.27
2022-08-29T15:37:41.149Z,36.37
2022-08-29T15:40:13.124Z,36.30
2022-08-29T15:42:40.983Z,36.76
2022-08-29T15:45:12.596Z,36.59
2022-08-29T15:47:40.402Z,36.66
2022-08-29T15:50:13.365Z,37.08
2022-08-29T15:52:40.183Z,36.78
2022-08-29T15:55:07.968Z,37.00
2022-08-29T15:57:42.345Z,37.40
2022-08-29T16:00:30.111Z,37.47
2022-08-29T16:03:00.571Z,37.56
2022-08-29T16:05:28.562Z,37.63
2022-08-29T16:07:55.394Z,37.39
2022-08-29T16:10:22.233Z,37.72
2022-08-29T16:12:49.113Z,37.95
2022-08-29T16:15:16.691Z,37.23
2022-08-29T16:17:43.621Z,38.35
2022-08-29T16:20:11.596Z,38.02
2022-08-29T16:22:40.689Z,38.35
2022-08-29T16:25:12.420Z,38.07
2022-08-29T16:27:39.482Z,38.36
2022-08-29T16:30:09.801Z,38.33
2022-08-29T16:32:37.582Z,38.64
2022-08-29T16:35:06.271Z,38.30
2022-08-29T16:37:33.812Z,38.82
2022-08-29T16:40:01.603Z,38.74
2022-08-29T16:42:30.561Z,38.91
2022-08-29T16:44:57.917Z,39.28
2022-08-29T16:47:24.701Z,39.75
2022-08-29T16:49:53.521Z,39.82
2022-08-29T16:52:20.444Z,40.22
2022-08-29T16:54:47.453Z,40.03
2022-08-29T16:57:16.762Z,39.78
2022-08-29T16:59:43.730Z,39.54
2022-08-29T17:02:10.674Z,39.76
2022-08-29T17:04:38.464Z,40.07
2022-08-29T17:07:05.673Z,40.07
2022-08-29T17:09:32.882Z,40.05
2022-08-29T17:12:03.434Z,40.17
2022-08-29T17:14:30.880Z,40.79
2022-08-29T17:16:57.954Z,40.64
2022-08-29T17:19:26.547Z,40.64
2022-08-29T17:21:54.055Z,40.98
2022-08-29T17:24:21.272Z,41.11
2022-08-29T17:26:48.729Z,41.20
2022-08-29T17:29:16.501Z,41.41
2022-08-29T17:31:44.327Z,41.63
2022-08-29T17:34:12.111Z,41.61
2022-08-29T17:36:41.784Z,41.69
2022-08-29T17:39:09.163Z,41.71
2022-08-29T17:41:37.267Z,42.05
2022-08-29T17:44:08.157Z,42.17
2022-08-29T17:46:35.153Z,42.84
2022-08-29T17:49:07.401Z,42.71
2022-08-29T17:51:36.676Z,43.01
2022-08-29T17:54:08.329Z,43.50
2022-08-29T17:56:45.970Z,44.06
2022-08-29T17:59:16.001Z,44.88
2022-08-29T18:01:43.363Z,45.59
2022-08-29T18:04:11.171Z,46.78
2022-08-29T18:06:38.629Z,47.46
2022-08-29T18:09:07.057Z,48.46
2022-08-29T18:11:37.711Z,50.17
2022-08-29T18:14:04.538Z,49.58
2022-08-29T18:16:31.512Z,50.65
2022-08-29T18:18:58.614Z,49.93
2022-08-29T18:21:26.037Z,49.59
2022-08-29T18:23:53.440Z,50.50
2022-08-29T18:26:22.847Z,50.77
2022-08-29T18:28:50.130Z,51.50
2022-08-29T18:31:18.979Z,51.67
2022-08-29T18:34:00.186Z,52.46
2022-08-29T18:36:29.368Z,53.37
2022-08-29T18:38:57.039Z,53.30
2022-08-29T18:41:23.881Z,53.94
2022-08-29T18:43:51.846Z,54.27
2022-08-29T18:46:18.829Z,54.88
2022-08-29T18:48:46.335Z,54.75
2022-08-29T18:51:14.605Z,54.54
2022-08-29T18:53:42.106Z,54.96
2022-08-29T18:56:09.229Z,55.54
2022-08-29T18:58:37.310Z,56.33
2022-08-29T19:01:27.987Z,56.78
2022-08-29T19:04:02.222Z,57.10
2022-08-29T19:06:29.314Z,57.46
2022-08-29T19:08:57.137Z,58.25
2022-08-29T19:11:25.277Z,58.57
2022-08-29T19:13:52.847Z,59.29
2022-08-29T19:16:22.679Z,59.65
2022-08-29T19:18:50.575Z,60.17
2022-08-29T19:21:17.423Z,60.71
2022-08-29T19:23:52.197Z,60.56
2022-08-29T19:26:29.139Z,60.19
2022-08-29T19:31:27.673Z,61.74
2022-08-29T19:33:55.045Z,61.54
2022-08-29T19:36:23.355Z,61.91
2022-08-29T19:38:50.850Z,63.10
2022-08-29T19:41:18.204Z,63.31
2022-08-29T19:43:45.436Z,63.39
2022-08-29T19:46:20.003Z,63.86
2022-08-29T19:48:51.309Z,64.20
2022-08-29T19:51:24.382Z,64.18
2022-08-29T19:53:57.204Z,64.56
2022-08-29T19:56:26.458Z,64.54
2022-08-29T19:58:53.962Z,64.02
2022-08-29T20:01:21.263Z,64.75
2022-08-29T20:03:48.402Z,64.91
2022-08-29T20:06:18.654Z,65.03
2022-08-29T20:08:47.548Z,65.49
2022-08-29T20:11:24.603Z,65.61
2022-08-29T20:13:57.270Z,65.89
2022-08-29T20:16:29.993Z,65.64
2022-08-29T20:18:57.564Z,64.65
2022-08-29T20:21:25.511Z,65.63
2022-08-29T20:23:57.737Z,65.69
2022-08-29T20:26:34.545Z,64.99
2022-08-29T20:29:06.017Z,65.13
2022-08-29T20:31:34.458Z,65.64
2022-08-29T20:34:01.962Z,66.52
2022-08-29T20:36:47.811Z,67.07
2022-08-29T20:39:18.023Z,66.91
2022-08-29T20:41:55.604Z,67.32
2022-08-29T20:44:32.929Z,67.56
2022-08-29T20:47:00.667Z,67.88
2022-08-29T20:49:27.644Z,67.63
2022-08-29T20:51:54.616Z,67.04
2022-08-29T20:54:24.218Z,67.33
2022-08-29T20:56:52.070Z,67.20
2022-08-29T20:59:19.888Z,67.76
2022-08-29T21:01:47.893Z,68.11
2022-08-29T21:04:34.514Z,68.44
2022-08-29T21:07:09.600Z,69.19
2022-08-29T21:09:40.250Z,69.42
2022-08-29T21:12:08.030Z,69.34
2022-08-29T21:14:34.939Z,68.81
2022-08-29T21:17:05.262Z,68.92
2022-08-29T21:19:33.128Z,68.82
2022-08-29T21:22:05.776Z,68.40
2022-08-29T21:24:33.804Z,69.24
2022-08-29T21:27:00.673Z,69.96
2022-08-29T21:29:28.420Z,70.29
2022-08-29T21:31:55.275Z,70.61
2022-08-29T21:34:23.318Z,71.12
2022-08-29T21:36:50.852Z,71.01
2022-08-29T21:39:28.395Z,70.62
2022-08-29T21:41:57.852Z,71.89
2022-08-29T21:44:27.809Z,72.16
2022-08-29T21:46:54.777Z,71.81
2022-08-29T21:49:21.935Z,72.25
2022-08-29T21:51:49.467Z,72.83
2022-08-29T21:54:18.083Z,72.44
2022-08-29T21:56:46.527Z,71.99
2022-08-29T21:59:16.361Z,72.42
2022-08-29T22:01:45.546Z,72.82
2022-08-29T22:04:19.435Z,73.69
2022-08-29T22:06:57.167Z,73.37
2022-08-29T22:09:24.053Z,73.89
2022-08-29T22:11:52.030Z,74.11
2022-08-29T22:14:18.890Z,74.41
2022-08-29T22:16:45.746Z,74.58
2022-08-29T22:19:16.503Z,74.26
2022-08-29T22:21:49.725Z,73.55
2022-08-29T22:24:18.136Z,73.52
2022-08-29T22:26:46.242Z,73.99
2022-08-29T22:29:15.758Z,74.12
2022-08-29T22:31:44.613Z,74.81
2022-08-29T22:34:15.050Z,76.15
2022-08-29T22:36:42.870Z,76.41
2022-08-29T22:39:10.387Z,76.70
2022-08-29T22:41:37.787Z,76.55
2022-08-29T22:46:54.019Z,76.50
2022-08-29T22:49:21.400Z,77.34
2022-08-29T22:51:48.894Z,78.09
2022-08-29T22:54:34.689Z,79.30
2022-08-29T22:57:14.524Z,79.78
2022-08-29T22:59:43.195Z,80.04
2022-08-29T23:02:12.300Z,79.32
2022-08-29T23:04:40.101Z,79.12
2022-08-29T23:07:08.069Z,78.28
2022-08-29T23:09:41.078Z,76.71
2022-08-29T23:12:09.831Z,76.44
2022-08-29T23:14:38.360Z,76.99
2022-08-29T23:17:07.860Z,77.64
2022-08-29T23:19:36.730Z,78.18
2022-08-29T23:22:08.963Z,78.61
2022-08-29T23:24:36.524Z,79.76
2022-08-29T23:27:03.766Z,79.50
2022-08-29T23:29:32.772Z,78.77
2022-08-29T23:32:00.967Z,78.90
2022-08-29T23:34:28.156Z,79.32
2022-08-29T23:36:55.149Z,79.00
2022-08-29T23:39:22.099Z,79.22
2022-08-29T23:41:49.478Z,79.59
2022-08-29T23:44:17.729Z,79.74
2022-08-29T23:46:44.932Z,79.23
2022-08-29T23:49:11.874Z,79.30
2022-08-29T23:51:38.804Z,80.23
2022-08-29T23:54:05.864Z,80.37
2022-08-29T23:56:32.808Z,78.89
2022-08-29T23:59:00.099Z,78.40
